Time;durP1;ratioP1;P1;durP2;ratioP2;P2;SDS_P1;SDS_P2;PMS_P1;PMS_P2;Temp;Humidity;BMP_temperature;BMP_pressure;BME280_temperature;BME280_humidity;BME280_pressure;Samples;Min_cycle;Max_cycle;Signal;HPM_P1;HPM_P2
2023/05/18 00:00:00;;;;;;;14.60;3.85;;;7.10;99.90;;;;;;6115680;23;20025;-81
2023/05/18 00:02:26;;;;;;;18.48;3.92;;;7.00;99.90;;;;;;6117184;23;20255;-82
2023/05/18 00:04:51;;;;;;;11.48;3.20;;;7.10;99.90;;;;;;6115488;23;20037;-81
2023/05/18 00:07:18;;;;;;;17.67;2.95;;;7.00;99.90;;;;;;6116348;23;20006;-81
2023/05/18 00:09:43;;;;;;;11.20;3.25;;;7.00;99.90;;;;;;6112026;23;20009;-80
2023/05/18 00:12:09;;;;;;;22.55;3.70;;;6.90;99.90;;;;;;6117572;23;20097;-84
2023/05/18 00:14:34;;;;;;;19.00;3.90;;;6.90;99.90;;;;;;6117534;23;19998;-82
2023/05/18 00:17:00;;;;;;;8.02;2.67;;;6.80;99.90;;;;;;6114899;23;20060;-81
2023/05/18 00:19:27;;;;;;;12.52;3.50;;;6.80;99.90;;;;;;6114937;23;20020;-81
2023/05/18 00:21:54;;;;;;;13.95;2.63;;;6.80;99.90;;;;;;6113426;23;20836;-83
2023/05/18 00:24:20;;;;;;;14.57;2.95;;;6.70;99.90;;;;;;6115608;23;20371;-81
2023/05/18 00:26:47;;;;;;;19.08;3.72;;;6.70;99.90;;;;;;6117430;23;20005;-81
2023/05/18 00:29:14;;;;;;;12.93;3.92;;;6.70;99.90;;;;;;6118052;23;20447;-81
2023/05/18 00:31:40;;;;;;;9.68;2.88;;;6.60;99.90;;;;;;6114308;23;20031;-82
2023/05/18 00:34:07;;;;;;;14.80;3.35;;;6.60;99.90;;;;;;6114314;23;20065;-81
2023/05/18 00:36:34;;;;;;;11.07;3.13;;;6.60;99.90;;;;;;6115323;23;20336;-83
2023/05/18 00:39:00;;;;;;;14.13;4.07;;;6.60;99.90;;;;;;6117058;23;20029;-82
2023/05/18 00:41:26;;;;;;;15.55;4.13;;;6.50;99.90;;;;;;6118984;23;20328;-83
2023/05/18 00:43:56;;;;;;;14.05;3.05;;;6.50;99.90;;;;;;6116556;23;20002;-82
2023/05/18 00:46:26;;;;;;;14.30;3.38;;;6.50;99.90;;;;;;6118023;23;20385;-81
2023/05/18 00:48:55;;;;;;;12.02;3.05;;;6.40;99.90;;;;;;6116727;23;20009;-81
2023/05/18 00:51:22;;;;;;;10.15;3.75;;;6.40;99.90;;;;;;6118461;23;20002;-82
2023/05/18 00:53:50;;;;;;;13.98;3.25;;;6.40;99.90;;;;;;6115299;23;20252;-81
2023/05/18 00:56:17;;;;;;;21.55;5.75;;;6.30;99.90;;;;;;6114206;23;20314;-85
2023/05/18 00:58:43;;;;;;;19.92;3.83;;;6.30;99.90;;;;;;6117318;23;20029;-82
2023/05/18 01:01:09;;;;;;;12.90;3.50;;;6.30;99.90;;;;;;6117714;23;20456;-85
2023/05/18 01:03:38;;;;;;;9.65;2.80;;;6.30;99.90;;;;;;6117093;23;19998;-83
2023/05/18 01:06:05;;;;;;;7.20;2.70;;;6.20;99.90;;;;;;6118007;23;20038;-83
2023/05/18 01:08:32;;;;;;;22.15;4.03;;;6.20;99.90;;;;;;6117655;23;20024;-81
2023/05/18 01:11:13;;;;;;;15.60;3.35;;;6.20;99.90;;;;;;6113996;23;20033;-83
2023/05/18 01:13:51;;;;;;;11.70;3.40;;;6.20;99.90;;;;;;6088902;23;20436;-82
2023/05/18 01:16:25;;;;;;;14.48;3.20;;;6.10;99.90;;;;;;6114998;23;20029;-84
2023/05/18 01:19:01;;;;;;;8.57;2.90;;;6.10;99.90;;;;;;6117217;23;20026;-81
2023/05/18 01:21:48;;;;;;;9.55;3.30;;;6.00;99.90;;;;;;6090726;23;20014;-87
2023/05/18 01:24:24;;;;;;;14.38;3.38;;;6.00;99.90;;;;;;6117289;23;20013;-83
2023/05/18 01:26:56;;;;;;;15.90;3.20;;;6.00;99.90;;;;;;6114797;23;20688;-82
2023/05/18 01:29:23;;;;;;;24.05;4.18;;;5.90;99.90;;;;;;6113658;23;20006;-82
2023/05/18 01:31:49;;;;;;;14.40;3.88;;;5.90;99.90;;;;;;6115225;23;20573;-81
2023/05/18 01:34:14;;;;;;;14.35;3.67;;;5.90;99.90;;;;;;6117437;23;20013;-82
2023/05/18 01:36:40;;;;;;;10.93;3.63;;;5.90;99.90;;;;;;6115999;23;20005;-82
2023/05/18 01:39:07;;;;;;;10.30;3.67;;;5.80;99.90;;;;;;6117163;23;20006;-82
2023/05/18 01:41:38;;;;;;;17.85;4.65;;;5.80;99.90;;;;;;6115950;23;20555;-88
2023/05/18 01:44:25;;;;;;;19.77;3.42;;;5.80;99.90;;;;;;6115588;23;20016;-81
2023/05/18 01:47:15;;;;;;;8.38;3.00;;;5.80;99.90;;;;;;6114507;23;20006;-82
2023/05/18 01:49:57;;;;;;;16.42;3.55;;;5.70;99.90;;;;;;6116429;23;20013;-82
2023/05/18 01:52:35;;;;;;;14.30;3.65;;;5.70;99.90;;;;;;6091613;23;20002;-81
2023/05/18 01:55:05;;;;;;;13.15;4.18;;;5.60;99.90;;;;;;6115986;23;20129;-82
2023/05/18 01:57:33;;;;;;;12.50;3.65;;;5.60;99.90;;;;;;6114046;23;20029;-82
2023/05/18 01:59:59;;;;;;;18.83;4.55;;;5.60;99.90;;;;;;6114224;23;20024;-84
2023/05/18 02:02:26;;;;;;;9.18;3.05;;;5.60;99.90;;;;;;6116942;23;20005;-82
2023/05/18 02:04:51;;;;;;;15.50;3.30;;;5.50;99.90;;;;;;6115632;23;20062;-82
2023/05/18 02:07:20;;;;;;;14.57;3.67;;;5.50;99.90;;;;;;6117510;23;20006;-86
2023/05/18 02:09:46;;;;;;;10.35;3.13;;;5.50;99.90;;;;;;6116172;23;20009;-82
2023/05/18 02:12:11;;;;;;;6.65;3.08;;;5.50;99.90;;;;;;6116002;23;20014;-82
2023/05/18 02:14:37;;;;;;;15.20;4.25;;;5.60;99.90;;;;;;6114611;23;20002;-81
2023/05/18 02:17:05;;;;;;;10.70;3.25;;;5.60;99.90;;;;;;6115695;23;20010;-81
2023/05/18 02:19:32;;;;;;;15.55;3.33;;;5.60;99.90;;;;;;6114065;23;20093;-82
2023/05/18 02:21:58;;;;;;;7.32;2.85;;;5.50;99.90;;;;;;6117823;23;20030;-81
2023/05/18 02:24:24;;;;;;;14.07;3.85;;;5.50;99.90;;;;;;6117295;23;20329;-84
2023/05/18 02:26:50;;;;;;;11.40;3.38;;;5.50;99.90;;;;;;6113480;23;20013;-84
2023/05/18 02:29:16;;;;;;;17.25;4.30;;;5.40;99.90;;;;;;6113875;23;20026;-81
2023/05/18 02:31:43;;;;;;;12.27;4.10;;;5.40;99.90;;;;;;6114253;23;20002;-86
2023/05/18 02:34:09;;;;;;;12.25;2.65;;;5.40;99.90;;;;;;6117192;23;20365;-82
2023/05/18 02:36:38;;;;;;;14.43;3.60;;;5.40;99.90;;;;;;6116980;23;20006;-85
2023/05/18 02:39:05;;;;;;;16.00;4.80;;;5.40;99.90;;;;;;6115945;23;20006;-82
2023/05/18 02:41:31;;;;;;;18.92;4.70;;;5.30;99.90;;;;;;6090620;23;20429;-82
2023/05/18 02:43:57;;;;;;;20.20;3.75;;;5.30;99.90;;;;;;6113543;23;20496;-82
2023/05/18 02:46:23;;;;;;;10.45;3.33;;;5.30;99.90;;;;;;6114911;23;20002;-82
2023/05/18 02:48:48;;;;;;;12.05;3.38;;;5.30;99.90;;;;;;6116010;23;20006;-81
2023/05/18 02:51:14;;;;;;;11.35;3.38;;;5.30;99.90;;;;;;6117074;23;20012;-82
2023/05/18 02:53:42;;;;;;;9.15;3.10;;;5.30;99.90;;;;;;6116293;23;20005;-82
2023/05/18 02:56:09;;;;;;;7.95;3.00;;;5.30;99.90;;;;;;6115849;23;20013;-83
2023/05/18 02:58:34;;;;;;;12.95;3.50;;;5.20;99.90;;;;;;6114703;23;20002;-83
2023/05/18 03:01:02;;;;;;;9.52;3.35;;;5.20;99.90;;;;;;6114288;23;20101;-82
2023/05/18 03:03:28;;;;;;;7.57;3.28;;;5.20;99.90;;;;;;6114091;23;20439;-81
2023/05/18 03:05:54;;;;;;;14.45;3.90;;;5.20;99.90;;;;;;6116841;23;20005;-82
2023/05/18 03:08:21;;;;;;;11.20;3.45;;;5.20;99.90;;;;;;6116584;23;20009;-81
2023/05/18 03:10:47;;;;;;;10.25;3.13;;;5.20;99.90;;;;;;6115621;23;20021;-83
2023/05/18 03:13:13;;;;;;;8.90;3.38;;;5.20;99.90;;;;;;6117136;23;20006;-81
2023/05/18 03:15:39;;;;;;;7.95;2.78;;;5.20;99.90;;;;;;6113464;23;20324;-82
2023/05/18 03:18:05;;;;;;;15.52;3.50;;;5.20;99.90;;;;;;6114034;23;20025;-82
2023/05/18 03:20:34;;;;;;;11.05;3.33;;;5.20;99.90;;;;;;6115226;23;20065;-86
2023/05/18 03:23:00;;;;;;;13.02;3.72;;;5.20;99.90;;;;;;6116340;23;20013;-82
2023/05/18 03:25:25;;;;;;;14.23;4.20;;;5.20;99.90;;;;;;6115427;23;20010;-83
2023/05/18 03:27:51;;;;;;;12.55;3.42;;;5.10;99.90;;;;;;6116554;23;20102;-81
2023/05/18 03:30:18;;;;;;;12.27;3.97;;;5.10;99.90;;;;;;6118209;23;20002;-86
2023/05/18 03:32:46;;;;;;;16.45;4.22;;;5.10;99.90;;;;;;6115754;23;20432;-82
2023/05/18 03:35:12;;;;;;;10.07;3.03;;;5.10;99.90;;;;;;6115797;23;19998;-84
2023/05/18 03:37:38;;;;;;;14.68;3.80;;;5.00;99.90;;;;;;6118690;23;20463;-83
2023/05/18 03:40:14;;;;;;;8.10;2.95;;;5.00;99.90;;;;;;6118975;23;20348;-81
2023/05/18 03:42:41;;;;;;;9.32;3.45;;;5.00;99.90;;;;;;6117294;23;20428;-83
2023/05/18 03:45:07;;;;;;;12.02;4.00;;;5.00;99.90;;;;;;6090603;23;20041;-82
2023/05/18 03:47:33;;;;;;;9.35;3.35;;;5.00;99.90;;;;;;6115802;23;20411;-82
2023/05/18 03:49:58;;;;;;;7.93;3.33;;;5.00;99.90;;;;;;6116440;23;20340;-81
2023/05/18 03:52:24;;;;;;;6.82;3.22;;;5.00;99.90;;;;;;6117152;23;19998;-86
2023/05/18 03:54:50;;;;;;;9.75;3.22;;;5.00;99.90;;;;;;6117404;23;20362;-83
2023/05/18 03:57:17;;;;;;;10.27;4.15;;;4.90;99.90;;;;;;6117546;23;20010;-83
2023/05/18 03:59:43;;;;;;;9.05;3.58;;;5.00;99.90;;;;;;6115999;23;20471;-81
2023/05/18 04:02:10;;;;;;;21.20;4.90;;;5.00;99.90;;;;;;6114554;23;20006;-82
2023/05/18 04:04:36;;;;;;;15.07;4.00;;;5.10;99.90;;;;;;6117182;23;20001;-81
2023/05/18 04:07:04;;;;;;;16.15;3.92;;;5.00;99.90;;;;;;6114741;23;20010;-82
2023/05/18 04:09:31;;;;;;;23.55;4.57;;;5.10;99.90;;;;;;6117072;23;20006;-83
2023/05/18 04:11:57;;;;;;;8.35;3.60;;;5.20;99.90;;;;;;6118373;23;20018;-81
2023/05/18 04:14:23;;;;;;;11.07;3.70;;;5.20;99.90;;;;;;6115383;23;20500;-81
2023/05/18 04:16:50;;;;;;;15.35;4.05;;;5.30;99.90;;;;;;6115211;23;20262;-82
2023/05/18 04:19:17;;;;;;;9.35;3.90;;;5.30;99.90;;;;;;6088914;23;20013;-82
2023/05/18 04:21:46;;;;;;;17.75;4.47;;;5.40;99.90;;;;;;6115095;23;20006;-82
2023/05/18 04:24:13;;;;;;;11.48;3.55;;;5.50;99.90;;;;;;6117681;23;20081;-82
2023/05/18 04:26:40;;;;;;;7.93;3.33;;;5.60;99.90;;;;;;6117504;23;20010;-84
2023/05/18 04:29:06;;;;;;;14.38;3.00;;;5.70;99.90;;;;;;6116132;23;20010;-82
2023/05/18 04:31:33;;;;;;;15.27;3.83;;;5.70;99.90;;;;;;6115705;23;20057;-81
2023/05/18 04:34:00;;;;;;;18.77;4.32;;;5.80;99.90;;;;;;6116737;23;20003;-83
2023/05/18 04:36:29;;;;;;;17.70;4.05;;;5.90;99.90;;;;;;6116127;23;20425;-82
2023/05/18 04:38:57;;;;;;;18.92;4.30;;;6.00;99.90;;;;;;6115181;23;20318;-85
2023/05/18 04:41:24;;;;;;;16.48;3.67;;;6.00;99.90;;;;;;6114585;23;20014;-82
2023/05/18 04:43:51;;;;;;;20.20;5.18;;;6.20;99.90;;;;;;6118146;23;20344;-82
2023/05/18 04:46:16;;;;;;;18.60;3.95;;;6.40;99.90;;;;;;6119039;23;20441;-81
2023/05/18 04:48:43;;;;;;;11.70;3.47;;;6.40;99.90;;;;;;6114242;23;20699;-81
2023/05/18 04:51:09;;;;;;;20.88;3.85;;;6.40;99.90;;;;;;6115576;23;20017;-87
2023/05/18 04:53:37;;;;;;;20.48;4.47;;;6.50;99.90;;;;;;6114379;23;20225;-82
2023/05/18 04:56:03;;;;;;;21.60;3.88;;;6.50;99.90;;;;;;6116892;23;20306;-82
2023/05/18 04:58:32;;;;;;;20.17;3.60;;;6.60;99.90;;;;;;6115964;23;20006;-87
2023/05/18 05:00:58;;;;;;;20.38;3.65;;;6.60;99.90;;;;;;6115779;23;20064;-86
2023/05/18 05:03:24;;;;;;;22.15;4.32;;;6.70;99.90;;;;;;6114784;23;20089;-82
2023/05/18 05:05:49;;;;;;;14.65;3.33;;;6.70;99.90;;;;;;6115614;23;20009;-82
2023/05/18 05:08:15;;;;;;;16.65;3.85;;;6.70;99.90;;;;;;6116242;23;20380;-82
2023/05/18 05:10:41;;;;;;;20.23;4.53;;;6.80;99.90;;;;;;6112242;23;20024;-81
2023/05/18 05:13:08;;;;;;;14.98;4.13;;;6.90;99.90;;;;;;6109348;23;20006;-82
2023/05/18 05:15:34;;;;;;;24.45;3.33;;;6.90;99.90;;;;;;6112479;23;20006;-87
2023/05/18 05:18:00;;;;;;;13.15;3.90;;;7.00;99.90;;;;;;6117378;23;20002;-80
2023/05/18 05:20:25;;;;;;;14.35;3.80;;;7.00;99.90;;;;;;6117062;23;20018;-83
2023/05/18 05:22:51;;;;;;;15.05;3.47;;;7.10;99.90;;;;;;6115199;23;20002;-81
2023/05/18 05:25:16;;;;;;;20.67;4.13;;;7.10;99.90;;;;;;6116561;23;20336;-81
2023/05/18 05:27:45;;;;;;;15.32;3.72;;;7.10;99.90;;;;;;6116601;23;20009;-85
2023/05/18 05:30:11;;;;;;;22.15;4.38;;;7.20;99.90;;;;;;6115329;23;20010;-80
2023/05/18 05:32:36;;;;;;;20.77;3.88;;;7.20;99.90;;;;;;6114824;23;20017;-81
2023/05/18 05:35:03;;;;;;;15.52;3.63;;;7.20;99.90;;;;;;6114158;23;19998;-81
2023/05/18 05:37:28;;;;;;;21.55;3.72;;;7.30;99.90;;;;;;6116125;23;20006;-82
2023/05/18 05:39:55;;;;;;;13.98;3.10;;;7.30;99.90;;;;;;6088653;23;20068;-82
2023/05/18 05:42:21;;;;;;;17.17;3.97;;;7.30;99.90;;;;;;6117535;23;20428;-80
2023/05/18 05:44:46;;;;;;;14.65;4.25;;;7.40;99.90;;;;;;6116028;23;20002;-82
2023/05/18 05:47:12;;;;;;;23.50;4.57;;;7.40;99.90;;;;;;6116031;23;20025;-80
2023/05/18 05:49:37;;;;;;;15.20;3.83;;;7.50;99.90;;;;;;6112353;23;20032;-80
2023/05/18 05:52:03;;;;;;;23.95;4.38;;;7.50;99.90;;;;;;6114342;23;20002;-79
2023/05/18 05:54:29;;;;;;;21.88;4.90;;;7.60;99.90;;;;;;6114746;23;20688;-81
2023/05/18 05:56:54;;;;;;;16.88;4.30;;;7.60;99.90;;;;;;6115187;23;20001;-81
2023/05/18 05:59:21;;;;;;;19.98;3.92;;;7.60;99.90;;;;;;6114938;23;20013;-81
2023/05/18 06:01:47;;;;;;;19.60;4.55;;;7.70;99.90;;;;;;6115429;23;20069;-81
2023/05/18 06:04:14;;;;;;;15.48;3.53;;;7.60;99.90;;;;;;6114597;23;20013;-80
2023/05/18 06:06:40;;;;;;;15.48;4.10;;;7.60;99.90;;;;;;6112514;23;20002;-79
2023/05/18 06:09:06;;;;;;;10.35;3.13;;;7.70;99.90;;;;;;6087814;23;20010;-80
2023/05/18 06:11:32;;;;;;;15.82;3.42;;;7.70;99.90;;;;;;6115964;23;20016;-80
2023/05/18 06:13:58;;;;;;;14.52;3.65;;;7.80;99.90;;;;;;6090602;23;20061;-81
2023/05/18 06:16:24;;;;;;;14.93;2.83;;;7.80;99.90;;;;;;6090282;23;20368;-80
2023/05/18 06:18:50;;;;;;;24.08;4.50;;;7.90;99.90;;;;;;6114982;23;20001;-82
2023/05/18 06:21:16;;;;;;;24.98;4.78;;;7.90;99.90;;;;;;6113483;23;20022;-78
2023/05/18 06:23:43;;;;;;;14.77;3.17;;;7.90;99.90;;;;;;6113834;23;20009;-80
2023/05/18 06:26:09;;;;;;;22.23;3.35;;;8.00;99.90;;;;;;6116252;23;20421;-80
2023/05/18 06:28:34;;;;;;;16.40;4.22;;;8.00;99.90;;;;;;6113927;23;20013;-81
2023/05/18 06:31:00;;;;;;;15.82;3.60;;;8.00;99.90;;;;;;6113685;23;19998;-81
2023/05/18 06:33:27;;;;;;;12.32;3.15;;;8.10;99.90;;;;;;6113760;23;20013;-81
2023/05/18 06:35:53;;;;;;;12.45;2.83;;;8.10;99.90;;;;;;6113960;23;20031;-80
2023/05/18 06:38:19;;;;;;;18.88;3.10;;;8.20;99.90;;;;;;6088641;23;20017;-80
2023/05/18 06:40:44;;;;;;;15.30;3.60;;;8.20;99.90;;;;;;6113373;23;20010;-81
2023/05/18 06:43:10;;;;;;;20.92;3.63;;;8.30;99.90;;;;;;6115470;23;20029;-80
2023/05/18 06:45:36;;;;;;;10.75;2.90;;;8.30;99.90;;;;;;6112641;23;20020;-80
2023/05/18 06:48:01;;;;;;;20.63;3.63;;;8.30;99.90;;;;;;6115313;23;20006;-81
2023/05/18 06:50:27;;;;;;;17.48;3.42;;;8.40;99.90;;;;;;6115022;23;20010;-80
2023/05/18 06:52:53;;;;;;;16.48;3.40;;;8.40;99.90;;;;;;6115217;23;20018;-82
2023/05/18 06:55:18;;;;;;;14.52;3.80;;;8.40;99.90;;;;;;6116207;23;20005;-80
2023/05/18 06:57:44;;;;;;;14.90;3.40;;;8.50;99.90;;;;;;6114523;23;20013;-80
2023/05/18 07:00:11;;;;;;;25.45;3.50;;;8.50;99.90;;;;;;6112225;23;20017;-81
2023/05/18 07:02:42;;;;;;;12.43;3.05;;;8.50;99.90;;;;;;6112963;23;20002;-84
2023/05/18 07:05:08;;;;;;;16.00;3.67;;;8.50;99.90;;;;;;6114024;23;20021;-80
2023/05/18 07:07:36;;;;;;;8.02;2.55;;;8.50;99.90;;;;;;6088442;23;20009;-84
2023/05/18 07:10:03;;;;;;;19.67;3.15;;;8.50;99.90;;;;;;6115598;23;20028;-81
2023/05/18 07:12:30;;;;;;;13.73;3.58;;;8.50;99.90;;;;;;6115245;23;20647;-81
2023/05/18 07:14:56;;;;;;;18.15;3.67;;;8.60;99.90;;;;;;6114929;23;19998;-80
2023/05/18 07:17:21;;;;;;;18.63;3.22;;;8.60;99.90;;;;;;6112600;23;20009;-79
2023/05/18 07:19:47;;;;;;;25.30;4.47;;;8.60;99.90;;;;;;6114289;23;20014;-81
2023/05/18 07:22:13;;;;;;;13.68;3.17;;;8.70;99.90;;;;;;6116304;23;20013;-80
2023/05/18 07:24:38;;;;;;;17.08;3.33;;;8.70;99.90;;;;;;6113676;23;20005;-80
2023/05/18 07:27:04;;;;;;;9.32;2.25;;;8.80;99.90;;;;;;6111242;23;20435;-83
2023/05/18 07:29:33;;;;;;;19.25;3.70;;;8.80;99.90;;;;;;6115994;23;19998;-81
2023/05/18 07:31:58;;;;;;;12.55;2.78;;;8.90;99.90;;;;;;6115698;23;20068;-80
2023/05/18 07:34:26;;;;;;;22.17;4.45;;;8.90;99.90;;;;;;6107808;23;20006;-81
2023/05/18 07:36:52;;;;;;;18.80;3.72;;;9.00;99.90;;;;;;6112276;23;20107;-80
2023/05/18 07:39:18;;;;;;;19.27;3.55;;;9.00;99.90;;;;;;6116390;23;20005;-79
2023/05/18 07:41:48;;;;;;;15.70;3.00;;;9.00;99.90;;;;;;6112579;23;20016;-80
2023/05/18 07:44:14;;;;;;;16.02;3.30;;;9.00;99.90;;;;;;6112180;23;20437;-80
2023/05/18 07:46:40;;;;;;;15.07;3.25;;;9.00;99.90;;;;;;6112538;23;20006;-80
2023/05/18 07:49:06;;;;;;;13.25;2.83;;;9.10;99.90;;;;;;6113067;23;20084;-80
2023/05/18 07:51:33;;;;;;;17.40;3.22;;;9.10;99.90;;;;;;6115385;23;20021;-81
2023/05/18 07:54:01;;;;;;;12.13;2.90;;;9.10;99.90;;;;;;6112502;23;20306;-83
2023/05/18 07:56:27;;;;;;;12.07;2.83;;;9.10;99.90;;;;;;6113995;23;20009;-79
2023/05/18 07:58:52;;;;;;;21.00;4.53;;;9.20;99.90;;;;;;6115392;23;20010;-81
2023/05/18 08:01:18;;;;;;;12.13;2.72;;;9.20;99.90;;;;;;6115072;23;20440;-80
2023/05/18 08:03:43;;;;;;;15.88;3.45;;;9.20;99.90;;;;;;6089127;23;20057;-82
2023/05/18 08:06:09;;;;;;;17.15;3.83;;;9.20;99.90;;;;;;6111972;23;20131;-79
2023/05/18 08:08:36;;;;;;;17.20;2.70;;;9.30;99.90;;;;;;6114704;23;20006;-79
2023/05/18 08:11:03;;;;;;;15.45;3.95;;;9.30;99.90;;;;;;6114993;23;20199;-78
2023/05/18 08:13:29;;;;;;;15.55;3.50;;;9.40;99.90;;;;;;6115800;23;20002;-78
2023/05/18 08:15:55;;;;;;;22.05;4.38;;;9.30;99.90;;;;;;6116331;23;20009;-80
2023/05/18 08:18:21;;;;;;;12.38;3.28;;;9.40;99.90;;;;;;6115111;23;20057;-79
2023/05/18 08:20:52;;;;;;;21.80;3.67;;;9.40;99.90;;;;;;6115642;23;20073;-80
2023/05/18 08:23:18;;;;;;;18.13;3.75;;;9.50;99.90;;;;;;6113761;23;20286;-79
2023/05/18 08:25:44;;;;;;;15.63;3.50;;;9.50;99.90;;;;;;6118001;23;20005;-80
2023/05/18 08:28:09;;;;;;;15.13;3.97;;;9.60;99.90;;;;;;6117566;23;20337;-80
2023/05/18 08:30:36;;;;;;;19.27;3.25;;;9.60;99.90;;;;;;6115403;23;20037;-82
2023/05/18 08:33:02;;;;;;;14.25;3.83;;;9.70;99.90;;;;;;6116190;23;20044;-80
2023/05/18 08:35:28;;;;;;;13.75;3.10;;;9.70;99.90;;;;;;6117714;23;19998;-79
2023/05/18 08:37:54;;;;;;;20.00;3.63;;;9.70;99.90;;;;;;6116967;23;19998;-81
2023/05/18 08:40:19;;;;;;;19.60;4.18;;;9.80;99.90;;;;;;6113448;23;20025;-80
2023/05/18 08:43:00;;;;;;;14.77;3.35;;;9.80;99.90;;;;;;6114258;23;20002;-80
2023/05/18 08:45:38;;;;;;;18.95;4.03;;;9.90;99.90;;;;;;6112742;23;20010;-80
2023/05/18 08:48:04;;;;;;;20.52;4.35;;;9.90;99.90;;;;;;6117603;23;20002;-80
2023/05/18 08:50:32;;;;;;;11.65;3.75;;;10.00;99.90;;;;;;6118165;23;20026;-79
2023/05/18 08:53:05;;;;;;;15.88;3.58;;;10.00;99.90;;;;;;6118306;23;20081;-82
2023/05/18 08:55:35;;;;;;;21.30;4.05;;;10.10;99.90;;;;;;6116363;23;20309;-82
2023/05/18 08:58:06;;;;;;;15.30;4.18;;;10.10;99.90;;;;;;6115404;23;20149;-79
2023/05/18 09:00:32;;;;;;;18.20;4.85;;;10.20;99.90;;;;;;6114577;23;20022;-81
2023/05/18 09:02:58;;;;;;;22.55;4.20;;;10.20;99.90;;;;;;6112486;23;20006;-80
2023/05/18 09:05:24;;;;;;;11.60;3.03;;;10.20;99.90;;;;;;6113066;23;19994;-80
2023/05/18 09:07:50;;;;;;;18.58;3.80;;;10.30;99.90;;;;;;6116336;23;20012;-79
2023/05/18 09:10:17;;;;;;;14.82;3.22;;;10.30;99.90;;;;;;6116699;23;20089;-79
2023/05/18 09:12:45;;;;;;;18.95;3.80;;;10.40;99.90;;;;;;6115563;23;20008;-81
2023/05/18 09:15:15;;;;;;;21.58;3.92;;;10.40;99.90;;;;;;6114340;23;20014;-80
2023/05/18 09:17:40;;;;;;;14.07;3.45;;;10.50;99.90;;;;;;6116046;23;20009;-80
2023/05/18 09:20:07;;;;;;;11.55;3.75;;;10.50;99.90;;;;;;6115657;23;20331;-79
2023/05/18 09:22:35;;;;;;;9.95;2.78;;;10.60;99.90;;;;;;6111364;23;19998;-78
2023/05/18 09:25:07;;;;;;;20.60;3.55;;;10.60;99.90;;;;;;6114173;23;20013;-80
2023/05/18 09:27:34;;;;;;;12.90;3.35;;;10.70;99.90;;;;;;6116047;23;20060;-80
2023/05/18 09:29:59;;;;;;;15.40;3.45;;;10.70;99.90;;;;;;6114381;23;19998;-80
2023/05/18 09:32:25;;;;;;;11.23;3.20;;;10.70;99.90;;;;;;6114849;23;20021;-80
2023/05/18 09:34:52;;;;;;;11.32;2.72;;;10.80;99.90;;;;;;6114217;23;20002;-79
2023/05/18 09:37:19;;;;;;;16.80;2.97;;;10.90;99.90;;;;;;6114943;23;20009;-79
2023/05/18 09:40:00;;;;;;;14.75;3.15;;;11.00;99.90;;;;;;6114131;23;20060;-80
2023/05/18 09:42:36;;;;;;;16.75;2.90;;;11.10;99.90;;;;;;6116332;23;20024;-79
2023/05/18 09:45:24;;;;;;;12.93;2.95;;;11.10;99.90;;;;;;6113909;23;20028;-79
2023/05/18 09:47:50;;;;;;;12.73;3.40;;;11.10;99.90;;;;;;6111763;23;20002;-80
2023/05/18 09:50:20;;;;;;;16.23;3.65;;;11.20;99.90;;;;;;6114587;23;20017;-79
2023/05/18 09:52:48;;;;;;;19.27;3.38;;;11.20;99.90;;;;;;6115054;23;20104;-79
2023/05/18 09:55:17;;;;;;;15.05;2.70;;;11.30;99.90;;;;;;6117253;23;20622;-77
2023/05/18 09:57:45;;;;;;;9.93;2.30;;;11.30;99.90;;;;;;6115681;23;19998;-79
2023/05/18 10:00:12;;;;;;;14.60;3.10;;;11.40;99.90;;;;;;6113912;23;20064;-80
2023/05/18 10:02:42;;;;;;;17.50;3.65;;;11.40;99.90;;;;;;6114281;23;20013;-82
2023/05/18 10:05:21;;;;;;;13.18;2.90;;;11.50;99.90;;;;;;6113822;23;20002;-79
2023/05/18 10:07:47;;;;;;;13.35;2.97;;;11.50;99.90;;;;;;6111540;23;20139;-77
2023/05/18 10:10:18;;;;;;;16.75;3.25;;;11.50;99.90;;;;;;6115976;23;20002;-79
2023/05/18 10:12:44;;;;;;;22.45;3.45;;;11.60;99.90;;;;;;6114682;23;20029;-81
2023/05/18 10:15:14;;;;;;;19.20;3.13;;;11.70;99.90;;;;;;6116462;23;20010;-81
2023/05/18 10:17:42;;;;;;;10.73;2.88;;;11.80;99.90;;;;;;6112017;23;20006;-79
2023/05/18 10:20:09;;;;;;;14.27;3.58;;;11.80;99.90;;;;;;6112546;23;20017;-80
2023/05/18 10:22:36;;;;;;;14.52;3.28;;;11.80;99.90;;;;;;6113463;23;20013;-80
2023/05/18 10:25:04;;;;;;;20.42;3.38;;;11.90;99.90;;;;;;6115838;23;20002;-78
2023/05/18 10:27:35;;;;;;;9.07;2.50;;;11.90;99.90;;;;;;6116973;23;20350;-82
2023/05/18 10:30:05;;;;;;;15.85;2.67;;;12.00;99.90;;;;;;6116428;23;20110;-80
2023/05/18 10:32:34;;;;;;;9.43;2.33;;;11.90;99.90;;;;;;6114900;23;20002;-80
2023/05/18 10:35:01;;;;;;;12.20;2.83;;;11.90;99.90;;;;;;6112933;23;20002;-80
2023/05/18 10:37:29;;;;;;;10.07;3.03;;;11.90;99.90;;;;;;6113214;23;20010;-79
2023/05/18 10:39:58;;;;;;;13.77;3.22;;;11.90;99.90;;;;;;6112967;23;20020;-80
2023/05/18 10:42:25;;;;;;;13.25;3.53;;;11.90;99.90;;;;;;6113069;23;20006;-79
2023/05/18 10:44:56;;;;;;;14.65;3.67;;;11.90;99.90;;;;;;6114696;23;20005;-79
2023/05/18 10:47:24;;;;;;;18.73;2.97;;;11.90;99.90;;;;;;6114777;23;20016;-80
2023/05/18 10:49:50;;;;;;;17.05;3.42;;;11.80;99.90;;;;;;6117167;23;20006;-78
2023/05/18 10:52:17;;;;;;;15.05;3.10;;;11.80;99.90;;;;;;6115980;23;20006;-79
2023/05/18 10:54:44;;;;;;;12.02;2.97;;;11.90;99.90;;;;;;6114507;23;20074;-79
2023/05/18 10:57:14;;;;;;;22.33;3.47;;;12.00;99.90;;;;;;6114075;23;20073;-79
2023/05/18 10:59:43;;;;;;;18.40;3.28;;;12.10;99.90;;;;;;6113081;23;20006;-79
2023/05/18 11:02:13;;;;;;;12.45;2.50;;;12.20;99.90;;;;;;6116926;23;20003;-82
2023/05/18 11:04:39;;;;;;;17.25;3.00;;;12.20;99.90;;;;;;6115635;23;20310;-80
2023/05/18 11:07:10;;;;;;;10.27;2.58;;;12.30;99.90;;;;;;6117094;23;19998;-76
2023/05/18 11:09:36;;;;;;;9.85;2.95;;;12.50;99.90;;;;;;6113398;23;20096;-79
2023/05/18 11:12:01;;;;;;;25.00;4.55;;;12.60;99.90;;;;;;6112008;23;20018;-78
2023/05/18 11:14:31;;;;;;;11.05;3.17;;;12.60;99.90;;;;;;6089832;23;20013;-77
2023/05/18 11:17:16;;;;;;;26.10;5.65;;;12.80;99.90;;;;;;6115121;23;20053;-78
2023/05/18 11:20:08;;;;;;;15.33;2.80;;;12.80;99.90;;;;;;6114503;23;20013;-78
2023/05/18 11:22:40;;;;;;;12.93;2.45;;;12.90;99.90;;;;;;6105250;23;20754;-79
2023/05/18 11:25:28;;;;;;;11.10;2.72;;;12.90;99.90;;;;;;6114603;23;20041;-79
2023/05/18 11:28:01;;;;;;;12.73;2.85;;;12.90;99.90;;;;;;6114360;23;20081;-79
2023/05/18 11:30:32;;;;;;;18.05;2.60;;;12.90;99.90;;;;;;6116552;23;20526;-78
2023/05/18 11:33:22;;;;;;;11.23;2.25;;;12.80;99.90;;;;;;6116995;23;20016;-79
2023/05/18 11:36:00;;;;;;;15.43;3.30;;;12.80;99.90;;;;;;6114091;23;20080;-78
2023/05/18 11:39:01;;;;;;;18.65;3.17;;;12.90;99.90;;;;;;6115767;23;20010;-78
2023/05/18 11:41:43;;;;;;;11.10;2.55;;;12.90;99.90;;;;;;6114294;23;20341;-78
2023/05/18 11:44:12;;;;;;;6.30;1.92;;;13.00;99.90;;;;;;6091037;23;20429;-79
2023/05/18 11:47:02;;;;;;;11.30;2.30;;;13.10;99.90;;;;;;6114995;23;20076;-81
2023/05/18 11:49:30;;;;;;;11.10;2.72;;;13.10;99.90;;;;;;6107432;23;20009;-78
2023/05/18 11:52:05;;;;;;;12.55;2.45;;;13.20;99.90;;;;;;6114482;23;20002;-77
2023/05/18 11:54:39;;;;;;;8.45;2.40;;;13.30;99.90;;;;;;6117182;23;20001;-80
2023/05/18 11:57:05;;;;;;;17.83;2.60;;;13.40;99.90;;;;;;6117984;23;20146;-80
2023/05/18 11:59:42;;;;;;;9.63;2.10;;;13.40;99.90;;;;;;6091519;23;20002;-80
2023/05/18 12:02:12;;;;;;;15.27;2.75;;;13.40;99.90;;;;;;6117294;23;20009;-77
2023/05/18 12:05:01;;;;;;;14.43;2.75;;;13.40;99.90;;;;;;6111563;23;20033;-79
2023/05/18 12:07:29;;;;;;;8.25;2.35;;;13.40;99.90;;;;;;6116397;23;20021;-78
2023/05/18 12:10:10;;;;;;;12.00;2.40;;;13.40;99.90;;;;;;6115579;23;20005;-78
2023/05/18 12:12:36;;;;;;;15.38;2.63;;;13.40;99.90;;;;;;6116343;23;20030;-78
2023/05/18 12:15:04;;;;;;;10.57;2.53;;;13.40;99.90;;;;;;6116190;23;20006;-76
2023/05/18 12:17:43;;;;;;;11.82;2.65;;;13.50;99.90;;;;;;6117772;23;20001;-78
2023/05/18 12:20:14;;;;;;;15.93;2.33;;;13.40;99.90;;;;;;6114128;23;20117;-81
2023/05/18 12:22:45;;;;;;;13.80;2.88;;;13.30;99.90;;;;;;6112718;23;20060;-77
2023/05/18 12:25:11;;;;;;;9.65;2.30;;;13.20;99.90;;;;;;6115861;23;20002;-78
2023/05/18 12:27:59;;;;;;;13.80;2.35;;;13.20;99.90;;;;;;6115675;23;20009;-77
2023/05/18 12:30:33;;;;;;;12.77;2.83;;;13.20;99.90;;;;;;6116297;23;20009;-79
2023/05/18 12:33:03;;;;;;;9.60;2.55;;;13.30;99.90;;;;;;6116499;23;20689;-78
2023/05/18 12:35:30;;;;;;;14.07;2.13;;;13.40;99.90;;;;;;6115069;23;20105;-77
2023/05/18 12:37:59;;;;;;;13.00;2.28;;;13.40;99.90;;;;;;6113238;23;20204;-78
2023/05/18 12:40:25;;;;;;;7.22;1.83;;;13.40;99.90;;;;;;6118147;23;20034;-78
2023/05/18 12:42:52;;;;;;;8.55;2.15;;;13.40;99.90;;;;;;6090638;23;20002;-77
2023/05/18 12:45:18;;;;;;;12.15;2.65;;;13.40;99.90;;;;;;6115280;23;20006;-77
2023/05/18 12:47:44;;;;;;;9.07;2.05;;;13.40;99.90;;;;;;6111393;23;20005;-78
2023/05/18 12:50:10;;;;;;;14.38;2.72;;;13.50;99.90;;;;;;6114248;23;20006;-78